Santa Margherita — V7JA2 — position and weather

sailwx.info

Track history (hours):
 
Tides and Currents Weather Stations Pressure Air Temp Water Temp Dewpoint Dewpoint Depression Visibility Wind Speed Wind Dir Waves Ship Positions

Santa Margherita

Last reported at 2017-May-10 02:53 UTC. Time now 2017-Jul-28 02:52 UTC.
Position N 01°55' E 102°19'.
Warning: this ship's position is months out of date.

Length 190 m; draft 12.8 m.

Type: Cargo ship. MMSI: 538090191.

Date/timePositionNaut miles runAvg speedWind from/ knotsBaromVisibWave heightAir tempDewpointWater temp
2017-May-10 02:53N 01°55' E 102°19'411.4
2017-May-10 02:30N 01°53' E 102°23'611.4
2017-May-10 01:59N 01°51' E 102°29'911.0
2017-May-10 01:11N 01°47' E 102°37'511.0
2017-May-10 00:46N 01°46' E 102°41'5412.0
2017-May-09 20:15N 01°15' E 103°26'312.7
2017-May-09 19:59N 01°14' E 103°29'711.8
2017-May-09 19:21N 01°12' E 103°36'5 9.8
2017-May-09 18:51N 01°10' E 103°41'4 8.1
2017-May-09 18:18N 01°09' E 103°45'3 8.6
2017-May-09 17:58N 01°10' E 103°47'5 8.3
2017-May-09 17:23N 01°12' E 103°52'3 7.2
2017-May-09 16:59N 01°15' E 103°53'1 1.1
2017-May-09 16:17N 01°15' E 103°54'0 0.1
2017-May-09 15:53N 01°15' E 103°54'0 0.2
2017-May-09 15:29N 01°15' E 103°54'0 0.1
2017-May-09 14:59N 01°15' E 103°54'0 0.2
2017-May-09 14:29N 01°15' E 103°53'0 0.0
2017-May-09 12:44N 01°15' E 103°53'0 0.0
2017-May-09 12:11N 01°15' E 103°53'0 0.0
2017-May-09 11:59N 01°15' E 103°53'0 0.1
2017-May-09 10:32N 01°15' E 103°53'0 0.2
2017-May-09 10:26N 01°15' E 103°53'0 0.1
2017-May-09 09:23N 01°15' E 103°54'0 0.1
2017-May-09 08:41N 01°15' E 103°54'0 0.2
2017-May-09 08:30N 01°15' E 103°54'1 1.4
2017-May-09 08:00N 01°15' E 103°54'2 3.8
2017-May-09 07:30N 01°14' E 103°56'3 6.1
2017-May-09 07:00N 01°15' E 103°59'4 8.7
2017-May-09 06:29N 01°16' E 104°03'  
Track history (hours):
 
Tides and Currents Weather Stations Pressure Air Temp Water Temp Dewpoint Dewpoint Depression Visibility Wind Speed Wind Dir Waves Ship Positions

Santa Margherita

Last reported at 2017-May-10 02:53 UTC. Time now 2017-Jul-28 02:52 UTC.
Position N 01°55' E 102°19'.
Warning: this ship's position is months out of date.

Length 190 m; draft 12.8 m.

Type: Cargo ship. MMSI: 538090191.

Date/timePositionNaut miles runAvg speedWind from/ knotsBaromVisibWave heightAir tempDewpointWater temp
2017-May-10 02:53N 01°55' E 102°19'411.4
2017-May-10 02:30N 01°53' E 102°23'611.4
2017-May-10 01:59N 01°51' E 102°29'911.0
2017-May-10 01:11N 01°47' E 102°37'511.0
2017-May-10 00:46N 01°46' E 102°41'5412.0
2017-May-09 20:15N 01°15' E 103°26'312.7
2017-May-09 19:59N 01°14' E 103°29'711.8
2017-May-09 19:21N 01°12' E 103°36'5 9.8
2017-May-09 18:51N 01°10' E 103°41'4 8.1
2017-May-09 18:18N 01°09' E 103°45'3 8.6
2017-May-09 17:58N 01°10' E 103°47'5 8.3
2017-May-09 17:23N 01°12' E 103°52'3 7.2
2017-May-09 16:59N 01°15' E 103°53'1 1.1
2017-May-09 16:17N 01°15' E 103°54'0 0.1
2017-May-09 15:53N 01°15' E 103°54'0 0.2
2017-May-09 15:29N 01°15' E 103°54'0 0.1
2017-May-09 14:59N 01°15' E 103°54'0 0.2
2017-May-09 14:29N 01°15' E 103°53'0 0.0
2017-May-09 12:44N 01°15' E 103°53'0 0.0
2017-May-09 12:11N 01°15' E 103°53'0 0.0
2017-May-09 11:59N 01°15' E 103°53'0 0.1
2017-May-09 10:32N 01°15' E 103°53'0 0.2
2017-May-09 10:26N 01°15' E 103°53'0 0.1
2017-May-09 09:23N 01°15' E 103°54'0 0.1
2017-May-09 08:41N 01°15' E 103°54'0 0.2
2017-May-09 08:30N 01°15' E 103°54'1 1.4
2017-May-09 08:00N 01°15' E 103°54'2 3.8
2017-May-09 07:30N 01°14' E 103°56'3 6.1
2017-May-09 07:00N 01°15' E 103°59'4 8.7
2017-May-09 06:29N 01°16' E 104°03'  

Dump ship's entire track history